sensor_id;sensor_type;location;lat;lon;timestamp;P1;durP1;ratioP1;P2;durP2;ratioP2
19111;SDS011;9688;51.906;8.376;2023-06-26T00:02:04;11.52;;;7.50;;
19111;SDS011;9688;51.906;8.376;2023-06-26T00:04:49;15.10;;;7.30;;
19111;SDS011;9688;51.906;8.376;2023-06-26T00:07:37;8.68;;;7.28;;
19111;SDS011;9688;51.906;8.376;2023-06-26T00:10:23;8.55;;;7.43;;
19111;SDS011;9688;51.906;8.376;2023-06-26T00:13:08;8.40;;;7.07;;
19111;SDS011;9688;51.906;8.376;2023-06-26T00:15:57;7.93;;;7.13;;
19111;SDS011;9688;51.906;8.376;2023-06-26T00:18:46;8.30;;;7.30;;
19111;SDS011;9688;51.906;8.376;2023-06-26T00:21:32;8.65;;;6.63;;
19111;SDS011;9688;51.906;8.376;2023-06-26T00:24:17;10.15;;;7.05;;
19111;SDS011;9688;51.906;8.376;2023-06-26T00:27:02;8.85;;;7.30;;
19111;SDS011;9688;51.906;8.376;2023-06-26T00:29:48;11.25;;;6.70;;
19111;SDS011;9688;51.906;8.376;2023-06-26T00:32:35;7.78;;;6.72;;
19111;SDS011;9688;51.906;8.376;2023-06-26T00:35:21;8.18;;;6.93;;
19111;SDS011;9688;51.906;8.376;2023-06-26T00:38:06;9.50;;;7.00;;
19111;SDS011;9688;51.906;8.376;2023-06-26T00:40:51;10.25;;;7.30;;
19111;SDS011;9688;51.906;8.376;2023-06-26T00:43:38;8.02;;;6.72;;
19111;SDS011;9688;51.906;8.376;2023-06-26T00:46:24;9.77;;;7.47;;
19111;SDS011;9688;51.906;8.376;2023-06-26T00:49:11;8.00;;;7.20;;
19111;SDS011;9688;51.906;8.376;2023-06-26T00:51:58;8.80;;;7.53;;
19111;SDS011;9688;51.906;8.376;2023-06-26T00:54:43;8.10;;;7.25;;
19111;SDS011;9688;51.906;8.376;2023-06-26T00:57:29;12.23;;;7.70;;
19111;SDS011;9688;51.906;8.376;2023-06-26T01:00:15;11.23;;;7.70;;
19111;SDS011;9688;51.906;8.376;2023-06-26T01:03:01;10.00;;;7.25;;
19111;SDS011;9688;51.906;8.376;2023-06-26T01:05:47;8.77;;;7.00;;
19111;SDS011;9688;51.906;8.376;2023-06-26T01:08:33;10.90;;;7.45;;
19111;SDS011;9688;51.906;8.376;2023-06-26T01:11:18;9.95;;;7.43;;
19111;SDS011;9688;51.906;8.376;2023-06-26T01:14:04;7.55;;;6.75;;
19111;SDS011;9688;51.906;8.376;2023-06-26T01:16:49;7.63;;;6.82;;
19111;SDS011;9688;51.906;8.376;2023-06-26T01:19:35;8.20;;;6.82;;
19111;SDS011;9688;51.906;8.376;2023-06-26T01:22:25;8.33;;;6.77;;
19111;SDS011;9688;51.906;8.376;2023-06-26T01:25:19;8.90;;;7.32;;
19111;SDS011;9688;51.906;8.376;2023-06-26T01:28:09;8.45;;;6.93;;
19111;SDS011;9688;51.906;8.376;2023-06-26T01:30:56;8.25;;;7.35;;
19111;SDS011;9688;51.906;8.376;2023-06-26T01:33:43;10.73;;;6.88;;
19111;SDS011;9688;51.906;8.376;2023-06-26T01:36:30;8.98;;;7.32;;
19111;SDS011;9688;51.906;8.376;2023-06-26T01:39:18;9.13;;;7.20;;
19111;SDS011;9688;51.906;8.376;2023-06-26T01:42:04;8.80;;;7.00;;
19111;SDS011;9688;51.906;8.376;2023-06-26T01:44:52;8.00;;;7.20;;
19111;SDS011;9688;51.906;8.376;2023-06-26T01:47:42;7.07;;;6.35;;
19111;SDS011;9688;51.906;8.376;2023-06-26T01:50:33;9.05;;;7.50;;
19111;SDS011;9688;51.906;8.376;2023-06-26T01:53:21;7.70;;;6.93;;
19111;SDS011;9688;51.906;8.376;2023-06-26T01:56:11;7.88;;;6.32;;
19111;SDS011;9688;51.906;8.376;2023-06-26T01:58:59;8.60;;;6.97;;
19111;SDS011;9688;51.906;8.376;2023-06-26T02:01:47;7.95;;;6.95;;
19111;SDS011;9688;51.906;8.376;2023-06-26T02:04:33;8.47;;;6.70;;
19111;SDS011;9688;51.906;8.376;2023-06-26T02:07:18;9.57;;;6.97;;
19111;SDS011;9688;51.906;8.376;2023-06-26T02:10:07;9.18;;;6.50;;
19111;SDS011;9688;51.906;8.376;2023-06-26T02:12:53;10.95;;;7.22;;
19111;SDS011;9688;51.906;8.376;2023-06-26T02:15:39;7.15;;;6.45;;
19111;SDS011;9688;51.906;8.376;2023-06-26T02:18:25;11.45;;;6.55;;
19111;SDS011;9688;51.906;8.376;2023-06-26T02:21:11;9.27;;;7.43;;
19111;SDS011;9688;51.906;8.376;2023-06-26T02:23:56;9.57;;;7.05;;
19111;SDS011;9688;51.906;8.376;2023-06-26T02:26:42;7.53;;;6.72;;
19111;SDS011;9688;51.906;8.376;2023-06-26T02:29:27;7.78;;;6.93;;
19111;SDS011;9688;51.906;8.376;2023-06-26T02:32:13;7.80;;;6.60;;
19111;SDS011;9688;51.906;8.376;2023-06-26T02:34:59;9.25;;;6.50;;
19111;SDS011;9688;51.906;8.376;2023-06-26T02:37:45;8.65;;;7.20;;
19111;SDS011;9688;51.906;8.376;2023-06-26T02:40:30;8.18;;;7.07;;
19111;SDS011;9688;51.906;8.376;2023-06-26T02:43:16;9.65;;;7.40;;
19111;SDS011;9688;51.906;8.376;2023-06-26T02:46:01;8.02;;;6.78;;
19111;SDS011;9688;51.906;8.376;2023-06-26T02:48:47;8.85;;;6.93;;
19111;SDS011;9688;51.906;8.376;2023-06-26T02:51:33;7.78;;;6.97;;
19111;SDS011;9688;51.906;8.376;2023-06-26T02:54:19;8.20;;;7.00;;
19111;SDS011;9688;51.906;8.376;2023-06-26T02:57:06;8.73;;;6.70;;
19111;SDS011;9688;51.906;8.376;2023-06-26T02:59:54;12.20;;;7.50;;
19111;SDS011;9688;51.906;8.376;2023-06-26T03:02:39;11.55;;;7.40;;
19111;SDS011;9688;51.906;8.376;2023-06-26T03:05:25;9.07;;;7.00;;
19111;SDS011;9688;51.906;8.376;2023-06-26T03:08:11;8.27;;;6.97;;
19111;SDS011;9688;51.906;8.376;2023-06-26T03:10:57;9.40;;;7.30;;
19111;SDS011;9688;51.906;8.376;2023-06-26T03:13:42;10.55;;;6.93;;
19111;SDS011;9688;51.906;8.376;2023-06-26T03:16:27;10.47;;;7.40;;
19111;SDS011;9688;51.906;8.376;2023-06-26T03:19:13;11.85;;;7.55;;
19111;SDS011;9688;51.906;8.376;2023-06-26T03:21:58;8.98;;;7.57;;
19111;SDS011;9688;51.906;8.376;2023-06-26T03:24:45;8.77;;;7.20;;
19111;SDS011;9688;51.906;8.376;2023-06-26T03:27:31;10.63;;;7.55;;
19111;SDS011;9688;51.906;8.376;2023-06-26T03:30:16;9.43;;;7.63;;
19111;SDS011;9688;51.906;8.376;2023-06-26T03:33:02;7.78;;;6.97;;
19111;SDS011;9688;51.906;8.376;2023-06-26T03:35:47;10.98;;;7.65;;
19111;SDS011;9688;51.906;8.376;2023-06-26T03:38:32;9.35;;;7.00;;
19111;SDS011;9688;51.906;8.376;2023-06-26T03:41:19;11.60;;;7.13;;
19111;SDS011;9688;51.906;8.376;2023-06-26T03:44:04;10.73;;;7.50;;
19111;SDS011;9688;51.906;8.376;2023-06-26T03:46:50;10.32;;;6.97;;
19111;SDS011;9688;51.906;8.376;2023-06-26T03:49:35;10.70;;;6.87;;
19111;SDS011;9688;51.906;8.376;2023-06-26T03:52:20;9.07;;;6.63;;
19111;SDS011;9688;51.906;8.376;2023-06-26T03:55:06;7.85;;;7.05;;
19111;SDS011;9688;51.906;8.376;2023-06-26T03:57:53;11.35;;;7.35;;
19111;SDS011;9688;51.906;8.376;2023-06-26T04:00:39;10.00;;;7.00;;
19111;SDS011;9688;51.906;8.376;2023-06-26T04:03:25;10.55;;;7.03;;
19111;SDS011;9688;51.906;8.376;2023-06-26T04:06:10;10.88;;;6.90;;
19111;SDS011;9688;51.906;8.376;2023-06-26T04:08:56;8.43;;;6.40;;
19111;SDS011;9688;51.906;8.376;2023-06-26T04:11:41;7.43;;;6.63;;
19111;SDS011;9688;51.906;8.376;2023-06-26T04:14:29;7.70;;;6.90;;
19111;SDS011;9688;51.906;8.376;2023-06-26T04:17:14;11.10;;;6.80;;
19111;SDS011;9688;51.906;8.376;2023-06-26T04:20:00;9.63;;;7.38;;
19111;SDS011;9688;51.906;8.376;2023-06-26T04:22:51;10.13;;;7.30;;
19111;SDS011;9688;51.906;8.376;2023-06-26T04:25:36;8.10;;;7.17;;
19111;SDS011;9688;51.906;8.376;2023-06-26T04:28:22;9.20;;;7.45;;
19111;SDS011;9688;51.906;8.376;2023-06-26T04:31:09;10.23;;;6.70;;
19111;SDS011;9688;51.906;8.376;2023-06-26T04:33:55;9.30;;;7.15;;
19111;SDS011;9688;51.906;8.376;2023-06-26T04:36:41;8.32;;;6.85;;
19111;SDS011;9688;51.906;8.376;2023-06-26T04:39:30;9.50;;;7.18;;
19111;SDS011;9688;51.906;8.376;2023-06-26T04:42:15;9.90;;;7.55;;
19111;SDS011;9688;51.906;8.376;2023-06-26T04:45:00;9.27;;;7.10;;
19111;SDS011;9688;51.906;8.376;2023-06-26T04:47:48;8.32;;;6.75;;
19111;SDS011;9688;51.906;8.376;2023-06-26T04:50:33;9.15;;;7.15;;
19111;SDS011;9688;51.906;8.376;2023-06-26T04:53:19;9.95;;;7.03;;
19111;SDS011;9688;51.906;8.376;2023-06-26T04:56:05;11.43;;;6.63;;
19111;SDS011;9688;51.906;8.376;2023-06-26T04:58:51;11.13;;;7.05;;
19111;SDS011;9688;51.906;8.376;2023-06-26T05:01:37;10.77;;;7.15;;
19111;SDS011;9688;51.906;8.376;2023-06-26T05:04:26;9.23;;;6.88;;
19111;SDS011;9688;51.906;8.376;2023-06-26T05:07:11;8.40;;;6.88;;
19111;SDS011;9688;51.906;8.376;2023-06-26T05:09:58;9.50;;;6.63;;
19111;SDS011;9688;51.906;8.376;2023-06-26T05:12:49;11.80;;;6.78;;
19111;SDS011;9688;51.906;8.376;2023-06-26T05:15:35;12.43;;;6.63;;
19111;SDS011;9688;51.906;8.376;2023-06-26T05:18:20;8.45;;;6.25;;
19111;SDS011;9688;51.906;8.376;2023-06-26T05:21:08;8.55;;;7.13;;
19111;SDS011;9688;51.906;8.376;2023-06-26T05:23:57;8.75;;;6.65;;
19111;SDS011;9688;51.906;8.376;2023-06-26T05:26:43;12.75;;;7.38;;
19111;SDS011;9688;51.906;8.376;2023-06-26T05:29:30;9.30;;;6.07;;
19111;SDS011;9688;51.906;8.376;2023-06-26T05:32:16;8.90;;;6.13;;
19111;SDS011;9688;51.906;8.376;2023-06-26T05:35:03;10.85;;;5.53;;
19111;SDS011;9688;51.906;8.376;2023-06-26T05:37:51;7.97;;;5.50;;
19111;SDS011;9688;51.906;8.376;2023-06-26T05:40:38;6.38;;;5.57;;
19111;SDS011;9688;51.906;8.376;2023-06-26T05:43:25;8.65;;;5.78;;
19111;SDS011;9688;51.906;8.376;2023-06-26T05:46:11;9.68;;;5.57;;
19111;SDS011;9688;51.906;8.376;2023-06-26T05:48:56;10.52;;;6.38;;
19111;SDS011;9688;51.906;8.376;2023-06-26T05:51:43;9.55;;;6.00;;
19111;SDS011;9688;51.906;8.376;2023-06-26T05:54:30;8.50;;;5.63;;
19111;SDS011;9688;51.906;8.376;2023-06-26T05:57:16;9.20;;;5.78;;
19111;SDS011;9688;51.906;8.376;2023-06-26T06:00:06;7.40;;;6.00;;
19111;SDS011;9688;51.906;8.376;2023-06-26T06:02:55;8.65;;;6.25;;
19111;SDS011;9688;51.906;8.376;2023-06-26T06:05:41;9.18;;;5.85;;
19111;SDS011;9688;51.906;8.376;2023-06-26T06:08:26;10.50;;;6.60;;
19111;SDS011;9688;51.906;8.376;2023-06-26T06:11:15;6.65;;;6.00;;
19111;SDS011;9688;51.906;8.376;2023-06-26T06:14:01;9.23;;;5.95;;
19111;SDS011;9688;51.906;8.376;2023-06-26T06:16:47;7.85;;;6.20;;
19111;SDS011;9688;51.906;8.376;2023-06-26T06:19:33;7.55;;;6.18;;
19111;SDS011;9688;51.906;8.376;2023-06-26T06:22:19;8.63;;;6.55;;
19111;SDS011;9688;51.906;8.376;2023-06-26T06:25:06;8.23;;;5.68;;
19111;SDS011;9688;51.906;8.376;2023-06-26T06:31:28;8.68;;;6.15;;
19111;SDS011;9688;51.906;8.376;2023-06-26T06:34:22;10.93;;;6.38;;
19111;SDS011;9688;51.906;8.376;2023-06-26T06:37:08;9.20;;;6.03;;
19111;SDS011;9688;51.906;8.376;2023-06-26T06:39:53;11.23;;;6.50;;
19111;SDS011;9688;51.906;8.376;2023-06-26T06:42:39;7.13;;;6.05;;
19111;SDS011;9688;51.906;8.376;2023-06-26T06:45:24;7.07;;;5.95;;
19111;SDS011;9688;51.906;8.376;2023-06-26T06:48:11;7.30;;;5.60;;
19111;SDS011;9688;51.906;8.376;2023-06-26T06:50:58;8.60;;;6.22;;
19111;SDS011;9688;51.906;8.376;2023-06-26T06:53:50;10.52;;;7.35;;
19111;SDS011;9688;51.906;8.376;2023-06-26T06:56:48;9.25;;;6.20;;
19111;SDS011;9688;51.906;8.376;2023-06-26T06:59:33;10.88;;;6.88;;
19111;SDS011;9688;51.906;8.376;2023-06-26T07:02:18;10.60;;;6.90;;
19111;SDS011;9688;51.906;8.376;2023-06-26T07:05:06;12.88;;;6.32;;
19111;SDS011;9688;51.906;8.376;2023-06-26T07:07:55;8.07;;;6.25;;
19111;SDS011;9688;51.906;8.376;2023-06-26T07:10:40;11.90;;;7.50;;
19111;SDS011;9688;51.906;8.376;2023-06-26T07:13:27;11.10;;;7.18;;
19111;SDS011;9688;51.906;8.376;2023-06-26T07:16:15;9.10;;;6.90;;
19111;SDS011;9688;51.906;8.376;2023-06-26T07:19:03;12.10;;;6.65;;
19111;SDS011;9688;51.906;8.376;2023-06-26T07:21:50;11.45;;;6.13;;
19111;SDS011;9688;51.906;8.376;2023-06-26T07:24:36;14.50;;;6.35;;
19111;SDS011;9688;51.906;8.376;2023-06-26T07:27:23;13.57;;;6.43;;
19111;SDS011;9688;51.906;8.376;2023-06-26T07:30:09;6.97;;;6.20;;
19111;SDS011;9688;51.906;8.376;2023-06-26T07:32:55;15.27;;;6.35;;
19111;SDS011;9688;51.906;8.376;2023-06-26T07:35:41;8.40;;;6.28;;
19111;SDS011;9688;51.906;8.376;2023-06-26T07:38:28;10.63;;;6.57;;
19111;SDS011;9688;51.906;8.376;2023-06-26T07:41:14;10.52;;;6.35;;
19111;SDS011;9688;51.906;8.376;2023-06-26T07:43:59;15.68;;;6.97;;
19111;SDS011;9688;51.906;8.376;2023-06-26T07:46:46;9.35;;;5.97;;
19111;SDS011;9688;51.906;8.376;2023-06-26T07:49:32;10.88;;;6.38;;
19111;SDS011;9688;51.906;8.376;2023-06-26T07:52:24;14.05;;;7.40;;
19111;SDS011;9688;51.906;8.376;2023-06-26T07:55:14;10.55;;;7.78;;
19111;SDS011;9688;51.906;8.376;2023-06-26T07:58:04;11.07;;;7.22;;
19111;SDS011;9688;51.906;8.376;2023-06-26T08:00:54;10.82;;;7.25;;
19111;SDS011;9688;51.906;8.376;2023-06-26T08:03:40;10.48;;;7.40;;
19111;SDS011;9688;51.906;8.376;2023-06-26T08:06:26;11.93;;;7.20;;
19111;SDS011;9688;51.906;8.376;2023-06-26T08:09:13;11.27;;;6.55;;
19111;SDS011;9688;51.906;8.376;2023-06-26T08:12:05;13.57;;;7.22;;
19111;SDS011;9688;51.906;8.376;2023-06-26T08:14:53;11.50;;;7.35;;
19111;SDS011;9688;51.906;8.376;2023-06-26T08:17:39;10.23;;;7.40;;
19111;SDS011;9688;51.906;8.376;2023-06-26T08:20:25;10.32;;;7.40;;
19111;SDS011;9688;51.906;8.376;2023-06-26T08:23:12;13.48;;;7.53;;
19111;SDS011;9688;51.906;8.376;2023-06-26T08:25:58;11.35;;;6.68;;
19111;SDS011;9688;51.906;8.376;2023-06-26T08:28:47;15.63;;;6.70;;
19111;SDS011;9688;51.906;8.376;2023-06-26T08:31:33;11.48;;;6.70;;
19111;SDS011;9688;51.906;8.376;2023-06-26T08:34:21;8.93;;;6.30;;
19111;SDS011;9688;51.906;8.376;2023-06-26T08:37:13;12.20;;;6.88;;
19111;SDS011;9688;51.906;8.376;2023-06-26T08:40:09;13.20;;;7.30;;
19111;SDS011;9688;51.906;8.376;2023-06-26T08:42:58;13.00;;;6.88;;
19111;SDS011;9688;51.906;8.376;2023-06-26T08:45:47;13.38;;;6.50;;
19111;SDS011;9688;51.906;8.376;2023-06-26T08:48:35;13.98;;;7.78;;
19111;SDS011;9688;51.906;8.376;2023-06-26T08:51:23;14.15;;;8.13;;
19111;SDS011;9688;51.906;8.376;2023-06-26T08:54:22;14.10;;;7.43;;
19111;SDS011;9688;51.906;8.376;2023-06-26T08:57:14;12.50;;;7.13;;
19111;SDS011;9688;51.906;8.376;2023-06-26T09:00:15;10.35;;;6.75;;
19111;SDS011;9688;51.906;8.376;2023-06-26T09:03:08;10.93;;;6.57;;
19111;SDS011;9688;51.906;8.376;2023-06-26T09:06:04;11.48;;;6.97;;
19111;SDS011;9688;51.906;8.376;2023-06-26T09:08:50;12.80;;;7.45;;
19111;SDS011;9688;51.906;8.376;2023-06-26T09:11:36;12.25;;;6.97;;
19111;SDS011;9688;51.906;8.376;2023-06-26T09:14:25;10.50;;;6.68;;
19111;SDS011;9688;51.906;8.376;2023-06-26T09:17:16;12.40;;;6.47;;
19111;SDS011;9688;51.906;8.376;2023-06-26T09:20:08;12.90;;;6.57;;
19111;SDS011;9688;51.906;8.376;2023-06-26T09:22:56;9.10;;;5.93;;
19111;SDS011;9688;51.906;8.376;2023-06-26T09:25:42;11.93;;;5.85;;
19111;SDS011;9688;51.906;8.376;2023-06-26T09:28:33;9.98;;;5.80;;
19111;SDS011;9688;51.906;8.376;2023-06-26T09:31:23;13.30;;;5.13;;
19111;SDS011;9688;51.906;8.376;2023-06-26T09:34:31;11.18;;;5.75;;
19111;SDS011;9688;51.906;8.376;2023-06-26T09:44:26;12.05;;;5.95;;
19111;SDS011;9688;51.906;8.376;2023-06-26T09:47:13;18.80;;;6.47;;
19111;SDS011;9688;51.906;8.376;2023-06-26T09:50:06;9.82;;;5.53;;
19111;SDS011;9688;51.906;8.376;2023-06-26T09:53:24;7.93;;;5.13;;
19111;SDS011;9688;51.906;8.376;2023-06-26T09:56:26;13.35;;;5.78;;
19111;SDS011;9688;51.906;8.376;2023-06-26T09:59:16;10.45;;;6.00;;
19111;SDS011;9688;51.906;8.376;2023-06-26T10:05:26;12.57;;;5.50;;
19111;SDS011;9688;51.906;8.376;2023-06-26T10:08:14;13.18;;;5.80;;
19111;SDS011;9688;51.906;8.376;2023-06-26T10:11:14;10.93;;;5.70;;
19111;SDS011;9688;51.906;8.376;2023-06-26T10:14:16;8.27;;;5.55;;
19111;SDS011;9688;51.906;8.376;2023-06-26T10:17:15;10.38;;;5.32;;
19111;SDS011;9688;51.906;8.376;2023-06-26T10:20:09;11.23;;;4.72;;
19111;SDS011;9688;51.906;8.376;2023-06-26T10:23:09;10.30;;;5.32;;
19111;SDS011;9688;51.906;8.376;2023-06-26T10:26:11;11.00;;;5.32;;
19111;SDS011;9688;51.906;8.376;2023-06-26T10:29:03;9.60;;;5.45;;
19111;SDS011;9688;51.906;8.376;2023-06-26T10:31:52;9.68;;;5.45;;
19111;SDS011;9688;51.906;8.376;2023-06-26T10:34:45;12.57;;;6.13;;
19111;SDS011;9688;51.906;8.376;2023-06-26T10:37:41;11.73;;;5.28;;
19111;SDS011;9688;51.906;8.376;2023-06-26T10:40:39;10.73;;;5.28;;
19111;SDS011;9688;51.906;8.376;2023-06-26T10:43:29;13.65;;;5.25;;
19111;SDS011;9688;51.906;8.376;2023-06-26T10:46:15;9.50;;;4.40;;
19111;SDS011;9688;51.906;8.376;2023-06-26T10:49:07;7.57;;;4.32;;
19111;SDS011;9688;51.906;8.376;2023-06-26T10:52:02;9.70;;;4.90;;
19111;SDS011;9688;51.906;8.376;2023-06-26T10:54:54;9.23;;;4.82;;
19111;SDS011;9688;51.906;8.376;2023-06-26T10:57:44;8.68;;;4.22;;
19111;SDS011;9688;51.906;8.376;2023-06-26T11:00:33;7.82;;;4.13;;
19111;SDS011;9688;51.906;8.376;2023-06-26T11:03:22;6.22;;;4.35;;
19111;SDS011;9688;51.906;8.376;2023-06-26T11:06:09;8.00;;;4.22;;
19111;SDS011;9688;51.906;8.376;2023-06-26T11:09:00;7.28;;;4.65;;
19111;SDS011;9688;51.906;8.376;2023-06-26T11:28:38;11.32;;;4.45;;
19111;SDS011;9688;51.906;8.376;2023-06-26T11:31:25;8.98;;;3.72;;
19111;SDS011;9688;51.906;8.376;2023-06-26T11:34:13;6.72;;;3.70;;
19111;SDS011;9688;51.906;8.376;2023-06-26T11:36:59;8.93;;;3.67;;
19111;SDS011;9688;51.906;8.376;2023-06-26T11:39:47;6.45;;;3.40;;
19111;SDS011;9688;51.906;8.376;2023-06-26T11:42:33;6.93;;;3.47;;
19111;SDS011;9688;51.906;8.376;2023-06-26T11:45:21;7.40;;;3.25;;
19111;SDS011;9688;51.906;8.376;2023-06-26T11:48:07;3.63;;;2.80;;
19111;SDS011;9688;51.906;8.376;2023-06-26T11:50:53;4.75;;;2.70;;
19111;SDS011;9688;51.906;8.376;2023-06-26T11:53:40;6.93;;;2.60;;
19111;SDS011;9688;51.906;8.376;2023-06-26T11:56:27;8.02;;;3.20;;
19111;SDS011;9688;51.906;8.376;2023-06-26T11:59:13;5.35;;;2.90;;
19111;SDS011;9688;51.906;8.376;2023-06-26T12:02:00;6.00;;;2.72;;
19111;SDS011;9688;51.906;8.376;2023-06-26T12:04:50;6.60;;;2.95;;
19111;SDS011;9688;51.906;8.376;2023-06-26T12:07:36;4.53;;;3.10;;
19111;SDS011;9688;51.906;8.376;2023-06-26T12:10:22;5.22;;;2.88;;
19111;SDS011;9688;51.906;8.376;2023-06-26T12:13:08;3.55;;;2.70;;
19111;SDS011;9688;51.906;8.376;2023-06-26T12:15:50;3.80;;;2.45;;
19111;SDS011;9688;51.906;8.376;2023-06-26T12:18:38;2.72;;;2.53;;
19111;SDS011;9688;51.906;8.376;2023-06-26T12:21:48;3.70;;;3.10;;
19111;SDS011;9688;51.906;8.376;2023-06-26T12:24:36;6.93;;;3.05;;
19111;SDS011;9688;51.906;8.376;2023-06-26T12:27:28;7.25;;;2.80;;
19111;SDS011;9688;51.906;8.376;2023-06-26T12:30:18;6.30;;;2.75;;
19111;SDS011;9688;51.906;8.376;2023-06-26T12:33:04;5.70;;;2.92;;
19111;SDS011;9688;51.906;8.376;2023-06-26T12:36:00;3.38;;;2.65;;
19111;SDS011;9688;51.906;8.376;2023-06-26T12:38:46;7.43;;;3.17;;
19111;SDS011;9688;51.906;8.376;2023-06-26T12:41:33;5.30;;;2.53;;
19111;SDS011;9688;51.906;8.376;2023-06-26T12:44:23;3.72;;;2.78;;
19111;SDS011;9688;51.906;8.376;2023-06-26T12:47:10;4.25;;;2.83;;
19111;SDS011;9688;51.906;8.376;2023-06-26T12:49:58;3.83;;;2.92;;
19111;SDS011;9688;51.906;8.376;2023-06-26T12:52:46;2.90;;;2.58;;
19111;SDS011;9688;51.906;8.376;2023-06-26T12:55:32;3.00;;;2.80;;
19111;SDS011;9688;51.906;8.376;2023-06-26T12:58:18;7.90;;;2.60;;
19111;SDS011;9688;51.906;8.376;2023-06-26T13:01:04;4.10;;;3.03;;
19111;SDS011;9688;51.906;8.376;2023-06-26T13:03:51;4.47;;;2.83;;
19111;SDS011;9688;51.906;8.376;2023-06-26T13:06:37;5.93;;;2.50;;
19111;SDS011;9688;51.906;8.376;2023-06-26T13:09:24;4.60;;;2.72;;
19111;SDS011;9688;51.906;8.376;2023-06-26T13:12:12;3.22;;;2.85;;
19111;SDS011;9688;51.906;8.376;2023-06-26T13:14:58;4.78;;;2.90;;
19111;SDS011;9688;51.906;8.376;2023-06-26T13:17:44;2.78;;;2.53;;
19111;SDS011;9688;51.906;8.376;2023-06-26T13:20:30;4.65;;;2.95;;
19111;SDS011;9688;51.906;8.376;2023-06-26T13:23:20;3.25;;;2.58;;
19111;SDS011;9688;51.906;8.376;2023-06-26T13:26:07;2.95;;;2.65;;
19111;SDS011;9688;51.906;8.376;2023-06-26T13:28:53;2.92;;;2.30;;
19111;SDS011;9688;51.906;8.376;2023-06-26T13:31:39;4.68;;;3.05;;
19111;SDS011;9688;51.906;8.376;2023-06-26T13:34:27;4.30;;;2.38;;
19111;SDS011;9688;51.906;8.376;2023-06-26T13:37:13;3.13;;;2.30;;
19111;SDS011;9688;51.906;8.376;2023-06-26T13:39:59;3.00;;;2.45;;
19111;SDS011;9688;51.906;8.376;2023-06-26T13:42:56;5.60;;;2.33;;
19111;SDS011;9688;51.906;8.376;2023-06-26T13:45:42;4.40;;;2.30;;
19111;SDS011;9688;51.906;8.376;2023-06-26T13:48:28;5.22;;;2.60;;
19111;SDS011;9688;51.906;8.376;2023-06-26T13:51:18;6.18;;;2.47;;
19111;SDS011;9688;51.906;8.376;2023-06-26T13:54:04;6.50;;;2.58;;
19111;SDS011;9688;51.906;8.376;2023-06-26T13:56:52;2.78;;;2.03;;
19111;SDS011;9688;51.906;8.376;2023-06-26T13:59:44;2.75;;;2.20;;
19111;SDS011;9688;51.906;8.376;2023-06-26T14:02:34;4.72;;;2.03;;
19111;SDS011;9688;51.906;8.376;2023-06-26T14:05:23;4.68;;;2.20;;
19111;SDS011;9688;51.906;8.376;2023-06-26T14:08:13;4.93;;;1.90;;
19111;SDS011;9688;51.906;8.376;2023-06-26T14:10:59;4.75;;;2.17;;
19111;SDS011;9688;51.906;8.376;2023-06-26T14:13:45;4.10;;;2.10;;
19111;SDS011;9688;51.906;8.376;2023-06-26T14:16:32;5.13;;;1.90;;
19111;SDS011;9688;51.906;8.376;2023-06-26T14:19:18;3.97;;;2.35;;
19111;SDS011;9688;51.906;8.376;2023-06-26T14:22:04;2.63;;;1.70;;
19111;SDS011;9688;51.906;8.376;2023-06-26T14:24:54;2.47;;;1.60;;
19111;SDS011;9688;51.906;8.376;2023-06-26T14:27:40;5.38;;;1.92;;
19111;SDS011;9688;51.906;8.376;2023-06-26T14:30:31;4.22;;;2.13;;
19111;SDS011;9688;51.906;8.376;2023-06-26T14:33:22;4.82;;;2.22;;
19111;SDS011;9688;51.906;8.376;2023-06-26T14:36:08;7.43;;;1.88;;
19111;SDS011;9688;51.906;8.376;2023-06-26T14:38:54;6.53;;;1.48;;
19111;SDS011;9688;51.906;8.376;2023-06-26T14:41:41;4.30;;;1.60;;
19111;SDS011;9688;51.906;8.376;2023-06-26T14:44:27;3.95;;;2.42;;
19111;SDS011;9688;51.906;8.376;2023-06-26T14:47:13;1.77;;;1.50;;
19111;SDS011;9688;51.906;8.376;2023-06-26T14:50:01;11.43;;;2.15;;
19111;SDS011;9688;51.906;8.376;2023-06-26T14:52:53;2.55;;;1.80;;
19111;SDS011;9688;51.906;8.376;2023-06-26T14:55:39;3.60;;;1.50;;
19111;SDS011;9688;51.906;8.376;2023-06-26T14:58:25;5.35;;;1.77;;
19111;SDS011;9688;51.906;8.376;2023-06-26T15:01:11;4.57;;;1.42;;
19111;SDS011;9688;51.906;8.376;2023-06-26T15:03:59;4.28;;;1.80;;
19111;SDS011;9688;51.906;8.376;2023-06-26T15:06:46;4.22;;;1.90;;
19111;SDS011;9688;51.906;8.376;2023-06-26T15:09:32;1.67;;;1.33;;
19111;SDS011;9688;51.906;8.376;2023-06-26T15:12:18;2.53;;;1.50;;
19111;SDS011;9688;51.906;8.376;2023-06-26T15:15:04;1.92;;;1.77;;
19111;SDS011;9688;51.906;8.376;2023-06-26T15:17:51;2.85;;;1.77;;
19111;SDS011;9688;51.906;8.376;2023-06-26T15:20:37;1.73;;;1.63;;
19111;SDS011;9688;51.906;8.376;2023-06-26T15:23:25;3.55;;;1.40;;
19111;SDS011;9688;51.906;8.376;2023-06-26T15:26:12;4.38;;;1.70;;
19111;SDS011;9688;51.906;8.376;2023-06-26T15:28:59;1.75;;;1.60;;
19111;SDS011;9688;51.906;8.376;2023-06-26T15:31:59;3.42;;;2.17;;
19111;SDS011;9688;51.906;8.376;2023-06-26T15:34:45;3.25;;;1.70;;
19111;SDS011;9688;51.906;8.376;2023-06-26T15:37:31;3.80;;;1.67;;
19111;SDS011;9688;51.906;8.376;2023-06-26T15:40:19;3.50;;;1.48;;
19111;SDS011;9688;51.906;8.376;2023-06-26T15:43:05;2.15;;;1.50;;
19111;SDS011;9688;51.906;8.376;2023-06-26T15:45:51;1.50;;;1.30;;
19111;SDS011;9688;51.906;8.376;2023-06-26T15:48:37;4.38;;;1.10;;
19111;SDS011;9688;51.906;8.376;2023-06-26T15:51:23;3.60;;;1.40;;
19111;SDS011;9688;51.906;8.376;2023-06-26T15:54:09;4.20;;;1.65;;
19111;SDS011;9688;51.906;8.376;2023-06-26T15:57:01;2.47;;;1.85;;
19111;SDS011;9688;51.906;8.376;2023-06-26T15:59:47;2.80;;;1.50;;
19111;SDS011;9688;51.906;8.376;2023-06-26T16:02:33;2.50;;;1.85;;
19111;SDS011;9688;51.906;8.376;2023-06-26T16:05:19;2.15;;;1.65;;
19111;SDS011;9688;51.906;8.376;2023-06-26T16:08:13;4.20;;;1.80;;
19111;SDS011;9688;51.906;8.376;2023-06-26T16:11:04;3.22;;;1.92;;
19111;SDS011;9688;51.906;8.376;2023-06-26T16:13:55;5.07;;;2.15;;
19111;SDS011;9688;51.906;8.376;2023-06-26T16:16:43;4.45;;;1.73;;
19111;SDS011;9688;51.906;8.376;2023-06-26T16:19:30;2.25;;;1.27;;
19111;SDS011;9688;51.906;8.376;2023-06-26T16:22:29;1.98;;;1.50;;
19111;SDS011;9688;51.906;8.376;2023-06-26T16:25:15;4.40;;;1.63;;
19111;SDS011;9688;51.906;8.376;2023-06-26T16:28:01;3.38;;;1.55;;
19111;SDS011;9688;51.906;8.376;2023-06-26T16:30:49;3.28;;;1.17;;
19111;SDS011;9688;51.906;8.376;2023-06-26T16:33:35;3.13;;;1.45;;
19111;SDS011;9688;51.906;8.376;2023-06-26T16:36:21;7.22;;;1.75;;
19111;SDS011;9688;51.906;8.376;2023-06-26T16:39:08;5.82;;;1.40;;
19111;SDS011;9688;51.906;8.376;2023-06-26T16:42:01;4.78;;;1.30;;
19111;SDS011;9688;51.906;8.376;2023-06-26T16:44:53;3.05;;;1.27;;
19111;SDS011;9688;51.906;8.376;2023-06-26T16:47:42;2.97;;;1.50;;
19111;SDS011;9688;51.906;8.376;2023-06-26T16:50:28;5.72;;;2.03;;
19111;SDS011;9688;51.906;8.376;2023-06-26T16:53:14;1.60;;;1.42;;
19111;SDS011;9688;51.906;8.376;2023-06-26T16:56:00;3.05;;;1.33;;
19111;SDS011;9688;51.906;8.376;2023-06-26T16:58:47;3.28;;;1.48;;
19111;SDS011;9688;51.906;8.376;2023-06-26T17:01:33;3.42;;;1.40;;
19111;SDS011;9688;51.906;8.376;2023-06-26T17:04:21;3.28;;;1.42;;
19111;SDS011;9688;51.906;8.376;2023-06-26T17:07:07;1.83;;;1.67;;
19111;SDS011;9688;51.906;8.376;2023-06-26T17:09:53;3.20;;;1.33;;
19111;SDS011;9688;51.906;8.376;2023-06-26T17:12:39;4.57;;;1.20;;
19111;SDS011;9688;51.906;8.376;2023-06-26T17:15:35;2.72;;;1.58;;
19111;SDS011;9688;51.906;8.376;2023-06-26T17:18:21;3.17;;;1.40;;
19111;SDS011;9688;51.906;8.376;2023-06-26T17:21:07;3.35;;;1.38;;
19111;SDS011;9688;51.906;8.376;2023-06-26T17:23:56;1.35;;;1.25;;
19111;SDS011;9688;51.906;8.376;2023-06-26T17:26:42;3.70;;;1.30;;
19111;SDS011;9688;51.906;8.376;2023-06-26T17:29:28;5.03;;;1.50;;
19111;SDS011;9688;51.906;8.376;2023-06-26T17:32:14;3.15;;;1.30;;
19111;SDS011;9688;51.906;8.376;2023-06-26T17:35:00;3.80;;;1.60;;